Time;durP1;ratioP1;P1;durP2;ratioP2;P2;SDS_P1;SDS_P2;PMS_P1;PMS_P2;Temp;Humidity;BMP_temperature;BMP_pressure;BME280_temperature;BME280_humidity;BME280_pressure;Samples;Min_cycle;Max_cycle;Signal;HPM_P1;HPM_P2
2023/12/06 00:02:22;;;;;;;10.25;6.28;;;;;;;9.81;71.66;101446.22;5074769;28;20090;-83
2023/12/06 00:04:48;;;;;;;10.27;6.18;;;;;;;9.77;71.43;101448.63;5080559;28;20526;-83
2023/12/06 00:07:14;;;;;;;10.38;6.50;;;;;;;9.91;71.36;101470.44;5088545;28;20036;-83
2023/12/06 00:09:39;;;;;;;10.23;6.15;;;;;;;9.93;71.31;101473.16;5074147;28;20573;-83
2023/12/06 00:12:05;;;;;;;8.60;5.60;;;;;;;9.95;71.59;101475.06;5073868;28;20039;-84
2023/12/06 00:14:31;;;;;;;9.68;6.13;;;;;;;9.77;71.38;101445.09;5073160;28;20048;-83
2023/12/06 00:16:57;;;;;;;10.93;6.13;;;;;;;9.68;71.62;101419.31;5058337;28;20029;-84
2023/12/06 00:19:23;;;;;;;8.77;5.65;;;;;;;9.60;71.53;101412.66;5039144;28;20032;-83
2023/12/06 00:21:49;;;;;;;10.20;6.20;;;;;;;9.82;71.67;101438.53;5068904;28;20077;-83
2023/12/06 00:24:14;;;;;;;9.30;5.75;;;;;;;9.79;71.50;101438.28;5072442;28;20028;-83
2023/12/06 00:26:42;;;;;;;11.20;6.18;;;;;;;9.82;71.49;101434.97;5054912;28;20044;-84
2023/12/06 00:29:08;;;;;;;9.95;5.70;;;;;;;9.51;71.33;101371.22;5073841;28;20409;-82
2023/12/06 00:31:34;;;;;;;10.10;5.93;;;;;;;9.65;71.31;101394.72;5072574;28;20500;-83
2023/12/06 00:33:59;;;;;;;10.50;6.20;;;;;;;9.49;71.29;101369.31;5053326;28;20063;-83
2023/12/06 00:36:25;;;;;;;9.35;6.25;;;;;;;9.57;71.89;101384.69;5053695;28;20032;-83
2023/12/06 00:38:52;;;;;;;8.82;5.72;;;;;;;9.93;71.30;101449.69;5070820;28;20043;-83
2023/12/06 00:41:17;;;;;;;11.27;6.47;;;;;;;9.65;71.54;101392.13;5066790;28;20028;-83
2023/12/06 00:43:43;;;;;;;9.70;6.13;;;;;;;9.60;71.71;101398.72;5077927;28;20654;-83
2023/12/06 00:46:09;;;;;;;11.10;6.25;;;;;;;9.44;71.24;101352.44;5071440;28;20020;-83
2023/12/06 00:48:35;;;;;;;11.25;5.93;;;;;;;9.71;71.47;101418.59;5063125;28;20032;-83
2023/12/06 00:51:01;;;;;;;10.27;6.18;;;;;;;9.56;71.66;101389.78;5071761;28;20031;-83
2023/12/06 00:53:28;;;;;;;10.30;6.00;;;;;;;9.79;71.42;101425.25;5069650;28;20048;-83
2023/12/06 00:55:54;;;;;;;9.60;5.95;;;;;;;9.64;71.73;101409.47;5053182;28;20025;-83
2023/12/06 00:58:20;;;;;;;10.88;5.93;;;;;;;9.62;71.68;101407.56;5057539;28;20114;-83
2023/12/06 01:00:46;;;;;;;9.65;6.05;;;;;;;9.67;71.32;101403.56;5051123;28;20032;-83
2023/12/06 01:03:12;;;;;;;10.30;6.00;;;;;;;9.48;71.45;101363.22;5069192;28;20415;-83
2023/12/06 01:05:37;;;;;;;9.82;5.70;;;;;;;9.90;71.58;101442.53;5071643;28;20029;-83
2023/12/06 01:08:03;;;;;;;9.98;6.07;;;;;;;9.89;71.56;101435.50;5055022;28;20494;-83
2023/12/06 01:10:29;;;;;;;10.68;6.28;;;;;;;9.87;71.40;101437.13;5039668;28;20033;-83
2023/12/06 01:12:55;;;;;;;9.50;6.47;;;;;;;9.78;71.54;101432.19;5062907;28;20032;-83
2023/12/06 01:15:21;;;;;;;9.98;5.60;;;;;;;9.63;71.74;101396.31;5064980;28;20032;-83
2023/12/06 01:17:46;;;;;;;9.55;5.38;;;;;;;9.90;71.63;101439.00;5062956;28;20029;-83
2023/12/06 01:20:12;;;;;;;9.55;6.00;;;;;;;9.85;71.49;101422.16;5055448;28;20036;-83
2023/12/06 01:22:38;;;;;;;12.95;6.13;;;;;;;9.88;71.49;101440.63;5069409;28;20043;-83
2023/12/06 01:25:04;;;;;;;8.60;5.55;;;;;;;9.83;71.65;101424.66;5068870;28;20479;-83
2023/12/06 01:27:30;;;;;;;10.57;5.93;;;;;;;9.91;71.18;101433.91;5068851;28;20063;-83
2023/12/06 01:29:56;;;;;;;8.93;5.38;;;;;;;9.89;71.29;101430.28;5062997;28;20033;-83
2023/12/06 01:32:21;;;;;;;10.40;5.55;;;;;;;9.70;71.63;101396.84;5051288;28;20063;-83
2023/12/06 01:34:47;;;;;;;10.80;6.35;;;;;;;9.79;71.32;101396.56;5068535;28;20044;-82
2023/12/06 01:37:13;;;;;;;9.52;5.47;;;;;;;9.72;71.72;101395.25;5065708;28;20037;-83
2023/12/06 01:39:38;;;;;;;9.10;6.05;;;;;;;9.87;71.30;101408.41;5035903;28;20491;-83
2023/12/06 01:42:04;;;;;;;9.38;5.72;;;;;;;9.86;71.15;101397.88;5070761;28;20108;-83
2023/12/06 01:44:30;;;;;;;10.40;5.72;;;;;;;9.90;71.33;101413.81;5070245;28;20039;-83
2023/12/06 01:46:55;;;;;;;8.25;5.35;;;;;;;9.78;71.70;101392.16;5061132;28;20021;-83
2023/12/06 01:49:21;;;;;;;8.98;5.75;;;;;;;9.86;71.54;101392.66;5065614;28;20556;-82
2023/12/06 01:51:47;;;;;;;10.15;5.40;;;;;;;9.81;71.40;101374.09;5058980;28;20028;-83
2023/12/06 01:54:13;;;;;;;7.90;5.07;;;;;;;9.89;71.35;101390.25;5070274;28;20055;-83
2023/12/06 01:56:42;;;;;;;10.50;5.78;;;;;;;9.68;71.36;101343.69;5062507;28;20415;-83
2023/12/06 01:59:09;;;;;;;8.23;5.38;;;;;;;9.86;71.39;101383.13;5067344;28;20060;-83
2023/12/06 02:01:35;;;;;;;8.82;5.70;;;;;;;9.87;71.61;101386.66;5052668;28;20770;-83
2023/12/06 02:04:02;;;;;;;10.55;5.50;;;;;;;9.53;71.48;101330.53;5066786;28;20071;-83
2023/12/06 02:06:27;;;;;;;;;;;;;;;9.87;71.61;101390.16;5047897;28;20056;-84
2023/12/06 02:08:53;;;;;;;9.18;5.53;;;;;;;9.86;71.37;101383.13;5054332;28;19951;-83
2023/12/06 02:11:19;;;;;;;9.15;5.38;;;;;;;9.90;71.38;101379.00;5048609;28;20035;-83
2023/12/06 02:13:45;;;;;;;11.52;5.85;;;;;;;9.70;71.71;101354.22;5057644;28;20024;-83
2023/12/06 02:16:10;;;;;;;10.38;5.45;;;;;;;9.87;71.38;101378.81;5069240;28;20024;-83
2023/12/06 02:18:36;;;;;;;11.15;5.90;;;;;;;9.80;71.47;101351.44;5050616;28;20036;-83
2023/12/06 02:21:03;;;;;;;9.05;5.55;;;;;;;9.70;71.46;101341.19;5074370;28;20024;-83
2023/12/06 02:23:37;;;;;;;10.88;5.78;;;;;;;9.73;71.71;101339.66;5042053;28;20028;-83
2023/12/06 02:26:03;;;;;;;10.15;5.57;;;;;;;9.70;71.75;101333.38;5071622;28;20031;-82
2023/12/06 02:28:29;;;;;;;9.32;5.53;;;;;;;9.74;71.57;101332.75;5068103;28;20041;-84
2023/12/06 02:30:54;;;;;;;9.82;5.75;;;;;;;9.81;71.74;101350.63;5069393;28;20035;-83
2023/12/06 02:33:21;;;;;;;9.98;5.28;;;;;;;9.75;71.47;101340.66;5051233;28;20543;-83
2023/12/06 02:35:50;;;;;;;10.57;5.57;;;;;;;9.82;71.27;101342.00;5028312;28;20033;-83
2023/12/06 02:38:18;;;;;;;9.88;5.60;;;;;;;9.72;71.41;101326.53;5069314;28;20032;-83
2023/12/06 02:40:46;;;;;;;9.80;5.60;;;;;;;9.85;71.69;101339.59;5052701;28;20453;-83
2023/12/06 02:43:13;;;;;;;9.35;5.47;;;;;;;9.85;71.65;101336.09;5050018;28;20028;-83
2023/12/06 02:45:39;;;;;;;11.10;5.72;;;;;;;9.83;71.51;101337.69;5070099;28;20032;-82
2023/12/06 02:48:05;;;;;;;9.20;5.40;;;;;;;9.78;71.71;101316.53;5050274;28;20399;-82
2023/12/06 02:50:31;;;;;;;9.38;5.57;;;;;;;9.47;71.34;101257.13;5052402;28;20028;-82
2023/12/06 02:52:56;;;;;;;8.85;5.40;;;;;;;9.45;71.31;101257.81;5050830;28;20040;-82
2023/12/06 02:55:22;;;;;;;9.07;5.40;;;;;;;9.78;71.15;101320.03;5041279;28;20044;-82
2023/12/06 02:57:48;;;;;;;8.50;5.25;;;;;;;9.60;71.31;101295.31;5069019;28;20032;-83
2023/12/06 03:00:13;;;;;;;8.55;5.13;;;;;;;9.79;71.50;101318.31;5061038;28;20507;-82
2023/12/06 03:02:39;;;;;;;10.35;5.45;;;;;;;9.79;71.28;101318.31;5068330;28;20119;-83
2023/12/06 03:05:05;;;;;;;9.25;5.38;;;;;;;9.84;71.65;101323.81;5062905;28;20058;-82
2023/12/06 03:07:31;;;;;;;9.10;5.28;;;;;;;9.59;71.48;101285.72;5069703;28;20128;-82
2023/12/06 03:09:57;;;;;;;8.52;5.03;;;;;;;9.76;71.35;101316.41;5069929;28;20527;-83
2023/12/06 03:12:22;;;;;;;9.73;5.20;;;;;;;9.77;71.36;101318.19;5051778;28;20024;-82
2023/12/06 03:14:48;;;;;;;7.50;4.82;;;;;;;9.81;71.31;101310.59;5062739;28;20116;-82
2023/12/06 03:17:14;;;;;;;7.93;5.15;;;;;;;9.65;71.74;101277.38;5051095;28;20063;-82
2023/12/06 03:19:39;;;;;;;9.25;5.13;;;;;;;9.52;71.22;101258.31;5059977;28;20062;-83
2023/12/06 03:22:06;;;;;;;9.07;5.38;;;;;;;9.75;71.73;101311.97;5060581;28;20029;-82
2023/12/06 03:24:32;;;;;;;10.63;5.32;;;;;;;9.83;71.76;101320.31;5054817;28;20046;-84
2023/12/06 03:26:57;;;;;;;9.15;5.15;;;;;;;9.65;71.79;101291.34;5052719;28;20040;-83
2023/12/06 03:29:23;;;;;;;8.30;5.15;;;;;;;9.78;71.45;101306.09;5069883;28;20036;-82
2023/12/06 03:31:49;;;;;;;7.95;4.85;;;;;;;9.65;71.58;101290.41;5045115;28;20028;-84
2023/12/06 03:34:14;;;;;;;8.05;4.85;;;;;;;9.66;71.36;101280.09;5053840;28;20048;-83
2023/12/06 03:36:40;;;;;;;7.70;4.88;;;;;;;9.74;71.17;101299.75;5065406;28;20036;-83
2023/12/06 03:39:06;;;;;;;10.85;5.63;;;;;;;9.81;71.76;101303.66;5054453;28;20036;-82
2023/12/06 03:41:32;;;;;;;;;;;;;;;9.83;71.70;101303.78;5068946;28;20024;-83
2023/12/06 03:43:57;;;;;;;8.38;5.15;;;;;;;9.69;71.87;101289.81;5058184;28;19999;-83
2023/12/06 03:46:23;;;;;;;8.93;5.50;;;;;;;9.74;71.32;101298.88;5063150;28;20060;-82
2023/12/06 03:48:49;;;;;;;8.13;5.07;;;;;;;9.79;71.85;101307.88;5045116;28;20039;-82
2023/12/06 03:51:14;;;;;;;8.77;5.43;;;;;;;9.74;71.63;101304.97;5051164;28;20178;-82
2023/12/06 03:53:40;;;;;;;9.80;5.07;;;;;;;9.75;71.48;101303.25;5067708;28;20253;-82
2023/12/06 03:56:06;;;;;;;8.18;4.95;;;;;;;9.81;71.42;101321.03;5069239;28;20041;-82
2023/12/06 03:58:32;;;;;;;9.38;5.45;;;;;;;9.71;71.45;101293.44;5068081;28;20040;-82
2023/12/06 04:00:57;;;;;;;8.77;5.18;;;;;;;9.79;71.39;101310.47;5069634;28;20020;-83
2023/12/06 04:03:23;;;;;;;9.27;5.10;;;;;;;9.58;71.46;101276.97;5054779;28;20647;-83
2023/12/06 04:05:49;;;;;;;7.97;5.05;;;;;;;9.58;71.46;101252.59;5066849;28;20028;-84
2023/12/06 04:08:14;;;;;;;7.35;4.78;;;;;;;9.50;71.29;101235.56;5068255;28;20036;-82
2023/12/06 04:10:40;;;;;;;9.75;4.95;;;;;;;9.72;71.58;101284.81;5057283;28;20028;-82
2023/12/06 04:13:06;;;;;;;10.18;5.50;;;;;;;9.77;71.57;101304.25;5059143;28;20031;-82
2023/12/06 04:15:32;;;;;;;8.90;4.70;;;;;;;9.65;71.18;101288.72;5063367;28;20029;-82
2023/12/06 04:17:57;;;;;;;9.07;5.13;;;;;;;9.72;71.41;101298.75;5052849;28;20487;-82
2023/12/06 04:20:23;;;;;;;8.30;5.20;;;;;;;9.76;71.52;101313.81;5055636;28;20029;-82
2023/12/06 04:22:49;;;;;;;8.05;4.93;;;;;;;9.67;71.52;101294.03;5057846;28;20064;-83
2023/12/06 04:25:25;;;;;;;7.43;4.45;;;;;;;9.73;71.25;101302.25;5062527;28;20024;-83
2023/12/06 04:27:51;;;;;;;6.68;4.28;;;;;;;9.76;71.70;101318.13;5057733;28;20729;-82
2023/12/06 04:30:17;;;;;;;6.88;4.70;;;;;;;9.27;71.51;101239.25;5062518;28;20495;-82
2023/12/06 04:32:43;;;;;;;10.85;5.72;;;;;;;9.48;71.58;101273.66;5057503;28;20033;-82
2023/12/06 04:35:14;;;;;;;7.63;4.80;;;;;;;9.55;71.20;101282.00;5068206;28;20024;-82
2023/12/06 04:37:40;;;;;;;8.18;4.72;;;;;;;9.30;71.52;101239.47;5049098;28;20041;-83
2023/12/06 04:40:07;;;;;;;8.32;4.70;;;;;;;9.50;71.47;101275.59;5060451;28;20541;-83
2023/12/06 04:42:33;;;;;;;7.95;4.57;;;;;;;9.57;71.39;101289.94;5058753;28;20051;-83
2023/12/06 04:44:58;;;;;;;8.75;5.13;;;;;;;9.72;71.59;101321.34;5053828;28;20029;-84
2023/12/06 04:47:24;;;;;;;8.48;5.03;;;;;;;9.53;71.39;101288.81;5057725;28;20043;-84
2023/12/06 04:49:50;;;;;;;7.18;4.70;;;;;;;9.76;71.39;101320.72;5059854;28;20031;-83
2023/12/06 04:52:15;;;;;;;8.85;4.85;;;;;;;9.67;71.30;101300.16;5068037;28;20032;-84
2023/12/06 04:54:41;;;;;;;7.45;4.68;;;;;;;9.66;71.14;101290.53;5044656;28;20089;-84
2023/12/06 04:57:07;;;;;;;7.80;4.80;;;;;;;9.67;71.43;101292.34;5047935;28;20037;-84
2023/12/06 04:59:32;;;;;;;8.57;4.95;;;;;;;9.39;71.74;101247.88;5069263;28;20039;-84
2023/12/06 05:01:58;;;;;;;7.43;4.65;;;;;;;9.54;71.40;101267.13;5068243;28;20112;-85
2023/12/06 05:04:24;;;;;;;8.50;4.85;;;;;;;9.44;71.47;101254.31;5053323;28;20094;-85
2023/12/06 05:06:50;;;;;;;6.97;4.53;;;;;;;9.76;71.20;101292.94;5053276;28;20063;-84
2023/12/06 05:09:16;;;;;;;7.60;4.80;;;;;;;9.76;71.61;101295.53;5064082;28;20064;-84
2023/12/06 05:11:41;;;;;;;6.93;4.70;;;;;;;9.53;71.51;101254.91;5060054;28;20040;-84
2023/12/06 05:14:10;;;;;;;8.35;4.93;;;;;;;9.07;71.35;101173.69;5059350;28;20063;-84
2023/12/06 05:16:35;;;;;;;7.65;4.80;;;;;;;9.27;71.23;101206.28;5052203;28;20052;-84
2023/12/06 05:19:01;;;;;;;8.52;4.88;;;;;;;9.57;71.44;101248.22;5067291;28;20052;-84
2023/12/06 05:21:27;;;;;;;7.65;4.70;;;;;;;9.72;71.49;101285.72;5063758;28;20033;-81
2023/12/06 05:23:52;;;;;;;7.50;5.10;;;;;;;9.57;71.50;101250.81;5063598;28;20028;-81
2023/12/06 05:26:18;;;;;;;8.27;5.05;;;;;;;9.60;71.64;101252.72;5060742;28;20037;-83
2023/12/06 05:28:44;;;;;;;8.07;4.63;;;;;;;9.74;71.34;101275.38;5061716;28;20186;-82
2023/12/06 05:31:09;;;;;;;9.30;5.00;;;;;;;9.74;71.55;101275.38;5065471;28;20068;-82
2023/12/06 05:33:35;;;;;;;7.65;5.00;;;;;;;9.76;71.60;101279.00;5069037;28;20039;-82
2023/12/06 05:36:01;;;;;;;8.40;5.05;;;;;;;9.70;71.34;101266.44;5064475;28;20032;-82
2023/12/06 05:38:26;;;;;;;8.48;4.85;;;;;;;9.72;71.60;101271.78;5060097;28;20028;-83
2023/12/06 05:40:54;;;;;;;9.25;4.32;;;;;;;9.60;71.10;101245.78;5065314;28;20052;-83
2023/12/06 05:43:20;;;;;;;8.70;5.03;;;;;;;9.73;71.25;101277.06;5072034;28;20476;-83
2023/12/06 05:45:46;;;;;;;9.32;5.57;;;;;;;9.71;71.36;101273.47;5065899;28;20039;-83
2023/12/06 05:48:12;;;;;;;10.52;4.72;;;;;;;9.69;71.40;101275.06;5058637;28;20032;-84
2023/12/06 05:50:37;;;;;;;8.13;4.93;;;;;;;9.62;71.63;101258.94;5044979;28;20029;-83
2023/12/06 05:53:04;;;;;;;8.75;4.90;;;;;;;9.51;71.09;101238.28;5045040;28;20119;-84
2023/12/06 05:55:29;;;;;;;;;;;;;;;9.74;71.35;101275.38;5044765;28;20032;-84
2023/12/06 05:57:55;;;;;;;7.90;4.75;;;;;;;9.57;71.39;101246.50;5040730;28;20390;-84
2023/12/06 06:00:20;;;;;;;8.27;4.90;;;;;;;9.64;71.76;101259.94;5049734;28;20032;-83
2023/12/06 06:02:46;;;;;;;8.15;4.85;;;;;;;9.73;71.12;101269.25;5062516;28;20036;-83
2023/12/06 06:05:12;;;;;;;7.13;4.78;;;;;;;9.57;71.53;101246.50;5045299;28;20032;-82
2023/12/06 06:07:38;;;;;;;6.53;4.20;;;;;;;9.70;71.31;101263.84;5050350;28;20123;-83
2023/12/06 06:10:05;;;;;;;8.38;4.95;;;;;;;9.55;71.21;101247.19;5046034;28;20116;-82
2023/12/06 06:12:31;;;;;;;8.35;4.82;;;;;;;9.68;71.35;101273.28;5044194;28;20487;-82
2023/12/06 06:14:57;;;;;;;8.00;5.10;;;;;;;9.51;71.53;101232.16;5049043;28;20077;-83
2023/12/06 06:17:23;;;;;;;8.18;4.85;;;;;;;9.68;71.63;101260.22;5059831;28;20053;-83
2023/12/06 06:19:49;;;;;;;9.38;5.00;;;;;;;9.37;71.50;101198.25;5062996;28;20037;-83
2023/12/06 06:22:14;;;;;;;8.85;4.45;;;;;;;9.54;71.21;101237.56;5066761;28;20044;-83
2023/12/06 06:24:40;;;;;;;7.72;4.75;;;;;;;9.63;71.50;101246.00;5047821;28;20082;-83
2023/12/06 06:27:06;;;;;;;8.13;4.82;;;;;;;9.67;71.26;101257.50;5074027;28;20060;-84
2023/12/06 06:29:32;;;;;;;8.15;4.90;;;;;;;9.63;71.32;101251.22;5045228;28;20484;-83
2023/12/06 06:31:57;;;;;;;7.68;4.80;;;;;;;9.51;71.33;101235.66;5042341;28;20036;-83
2023/12/06 06:34:23;;;;;;;7.57;4.95;;;;;;;9.64;71.04;101253.00;5040975;28;20063;-83
2023/12/06 06:36:49;;;;;;;8.13;5.03;;;;;;;9.52;71.59;101232.25;5040697;28;20017;-83
2023/12/06 06:39:14;;;;;;;8.93;5.57;;;;;;;9.68;71.39;101256.72;5047656;28;20040;-83
2023/12/06 06:41:40;;;;;;;8.07;5.28;;;;;;;9.47;71.36;101217.13;5047549;28;20067;-82
2023/12/06 06:44:06;;;;;;;8.68;5.18;;;;;;;9.55;71.41;101235.06;5046780;28;20028;-83
2023/12/06 06:46:32;;;;;;;9.30;5.10;;;;;;;9.45;71.31;101203.97;5040870;28;20472;-83
2023/12/06 06:48:58;;;;;;;8.65;5.22;;;;;;;9.64;71.28;101239.97;5048342;28;20151;-83
2023/12/06 06:51:36;;;;;;;8.00;5.13;;;;;;;9.53;71.45;101218.41;5040510;28;20065;-83
2023/12/06 06:54:06;;;;;;;9.23;5.10;;;;;;;9.62;71.48;101236.34;5043688;28;20072;-84
2023/12/06 06:56:33;;;;;;;9.85;5.28;;;;;;;9.57;71.58;101215.22;5042122;28;20453;-84
2023/12/06 06:58:59;;;;;;;7.82;4.97;;;;;;;9.51;71.36;101212.19;5038190;28;20051;-84
2023/12/06 07:01:25;;;;;;;8.38;5.22;;;;;;;9.45;71.40;101203.09;5035066;28;20053;-84
2023/12/06 07:03:51;;;;;;;8.30;5.07;;;;;;;9.64;71.47;101223.44;5043286;28;20117;-83
2023/12/06 07:06:17;;;;;;;8.18;4.75;;;;;;;9.47;71.74;101202.38;5038506;28;20040;-84
2023/12/06 07:08:42;;;;;;;10.38;5.75;;;;;;;9.51;71.68;101200.88;5043367;28;20700;-84
2023/12/06 07:11:08;;;;;;;7.50;5.00;;;;;;;9.60;71.54;101227.53;5047432;28;20029;-84
2023/12/06 07:13:34;;;;;;;8.52;5.10;;;;;;;9.64;71.45;101223.44;5041596;28;20036;-84
2023/12/06 07:16:00;;;;;;;9.45;5.35;;;;;;;9.52;71.48;101202.66;5047295;28;20507;-84
2023/12/06 07:18:27;;;;;;;9.63;5.63;;;;;;;9.56;71.70;101208.16;5046122;28;20033;-84
2023/12/06 07:20:53;;;;;;;12.05;5.53;;;;;;;9.14;71.76;101142.03;5047259;28;20037;-85
2023/12/06 07:23:19;;;;;;;9.30;5.30;;;;;;;9.68;71.61;101228.94;5044789;28;20041;-85
2023/12/06 07:25:45;;;;;;;7.32;5.20;;;;;;;9.69;71.78;101229.84;5035907;28;20037;-84
2023/12/06 07:28:12;;;;;;;8.27;5.32;;;;;;;9.54;71.61;101211.50;5038860;28;20052;-85
2023/12/06 07:30:42;;;;;;;10.02;5.43;;;;;;;9.37;71.45;101187.81;5062108;28;20500;-84
2023/12/06 07:33:09;;;;;;;9.07;5.55;;;;;;;9.55;71.71;101216.81;5035997;28;20026;-84
2023/12/06 07:35:35;;;;;;;9.15;5.38;;;;;;;9.53;71.70;101215.81;5039165;28;20037;-84
2023/12/06 07:38:01;;;;;;;9.18;6.07;;;;;;;9.62;71.95;101230.25;5044024;28;20028;-84
2023/12/06 07:40:27;;;;;;;8.13;5.13;;;;;;;9.56;71.59;101221.22;5050248;28;20025;-84
2023/12/06 07:42:53;;;;;;;8.43;5.30;;;;;;;9.46;71.43;101195.38;5042210;28;20029;-84
2023/12/06 07:45:19;;;;;;;7.82;5.22;;;;;;;9.65;71.37;101230.44;5073607;28;20036;-84
2023/12/06 07:47:44;;;;;;;7.70;5.32;;;;;;;9.17;71.74;101151.75;5046786;28;20041;-83
2023/12/06 07:50:10;;;;;;;8.23;5.30;;;;;;;9.50;71.76;101213.03;5048338;28;20028;-83
2023/12/06 07:52:36;;;;;;;7.22;5.20;;;;;;;9.63;71.52;101224.22;5045224;28;20279;-83
2023/12/06 07:55:06;;;;;;;8.30;5.20;;;;;;;9.65;71.67;101227.81;5045112;28;20142;-83
2023/12/06 07:57:32;;;;;;;8.98;5.30;;;;;;;9.53;71.68;101209.69;5043860;28;20699;-84
2023/12/06 07:59:58;;;;;;;7.88;5.20;;;;;;;9.43;71.90;101191.66;5040192;28;20114;-84
2023/12/06 08:02:27;;;;;;;6.93;4.93;;;;;;;9.47;71.65;101198.88;5044001;28;20033;-84
2023/12/06 08:04:53;;;;;;;8.75;5.07;;;;;;;9.56;71.63;101215.09;5044360;28;20037;-84
2023/12/06 08:07:18;;;;;;;8.98;5.47;;;;;;;9.26;71.53;101165.38;5043076;28;20075;-85
2023/12/06 08:09:44;;;;;;;9.98;5.60;;;;;;;9.39;71.42;101180.13;5047712;28;20503;-85
2023/12/06 08:12:10;;;;;;;6.95;4.88;;;;;;;9.54;71.20;101215.00;5046297;28;20028;-85
2023/12/06 08:14:39;;;;;;;7.47;5.13;;;;;;;9.45;71.78;101197.88;5046382;28;20029;-85
2023/12/06 08:17:05;;;;;;;8.02;5.22;;;;;;;9.45;71.77;101200.47;5031407;28;20499;-86
2023/12/06 08:19:31;;;;;;;9.15;5.40;;;;;;;9.54;71.53;101207.16;5037294;28;20076;-85
2023/12/06 08:21:57;;;;;;;7.53;5.15;;;;;;;9.24;71.75;101145.25;5041804;28;20033;-85
2023/12/06 08:24:23;;;;;;;9.13;5.68;;;;;;;9.24;71.81;101135.72;5067567;28;20033;-85
2023/12/06 08:26:50;;;;;;;8.25;5.30;;;;;;;9.51;72.10;101196.56;5039682;28;20563;-85
2023/12/06 08:29:15;;;;;;;8.88;5.80;;;;;;;9.60;71.84;101214.50;5068349;28;20090;-85
2023/12/06 08:31:41;;;;;;;7.82;5.18;;;;;;;9.54;71.54;101207.16;5052069;28;20048;-85
2023/12/06 08:34:07;;;;;;;9.00;5.22;;;;;;;9.51;71.65;101191.34;5055039;28;20423;-88
2023/12/06 08:36:33;;;;;;;7.72;5.22;;;;;;;9.58;71.83;101208.28;5053811;28;20309;-86
2023/12/06 08:38:58;;;;;;;7.50;5.00;;;;;;;9.51;72.00;101201.78;5040374;28;20474;-84
2023/12/06 08:41:24;;;;;;;6.75;4.90;;;;;;;9.49;71.70;101184.22;5073431;28;20029;-83
2023/12/06 08:43:50;;;;;;;7.47;4.95;;;;;;;9.64;71.94;101206.06;5065610;28;20023;-83
2023/12/06 08:46:15;;;;;;;8.57;5.80;;;;;;;9.51;71.52;101187.84;5062254;28;20028;-83
2023/12/06 08:48:41;;;;;;;7.95;4.90;;;;;;;9.34;71.85;101166.78;5069106;28;20051;-84
2023/12/06 08:51:08;;;;;;;8.23;5.60;;;;;;;9.52;71.66;101184.41;5053541;28;20099;-84
2023/12/06 08:53:35;;;;;;;6.63;5.05;;;;;;;9.65;71.64;101197.47;5055187;28;20064;-84
2023/12/06 08:56:01;;;;;;;8.85;5.28;;;;;;;9.22;72.13;101120.78;5048852;28;20025;-83
2023/12/06 08:58:27;;;;;;;8.13;5.30;;;;;;;9.64;71.56;101192.16;5058810;28;20032;-84
2023/12/06 09:00:53;;;;;;;9.52;6.25;;;;;;;9.57;71.83;101178.72;5047568;28;20407;-85
2023/12/06 09:03:19;;;;;;;10.73;6.35;;;;;;;9.35;72.06;101141.63;5057784;28;20161;-84
2023/12/06 09:05:48;;;;;;;11.27;6.28;;;;;;;9.17;71.97;101104.84;5052529;28;20241;-85
2023/12/06 09:08:15;;;;;;;8.65;5.65;;;;;;;9.62;71.70;101183.31;5051259;28;20032;-84
2023/12/06 09:10:43;;;;;;;8.93;6.10;;;;;;;9.03;72.11;101080.50;5068528;28;20040;-84
2023/12/06 09:13:09;;;;;;;9.20;6.05;;;;;;;9.26;71.69;101110.66;5051499;28;20024;-85
2023/12/06 09:15:35;;;;;;;8.07;5.93;;;;;;;9.66;71.93;101177.50;5064777;28;20086;-84
2023/12/06 09:18:00;;;;;;;9.00;6.15;;;;;;;9.37;71.89;101130.47;5056519;28;20042;-85
2023/12/06 09:20:26;;;;;;;8.23;5.70;;;;;;;9.43;71.99;101137.81;5055432;28;20035;-85
2023/12/06 09:22:52;;;;;;;8.13;5.75;;;;;;;9.56;71.97;101161.25;5061017;28;20033;-85
2023/12/06 09:25:17;;;;;;;8.73;5.68;;;;;;;9.64;72.10;101168.69;5067970;28;20024;-83
2023/12/06 09:27:43;;;;;;;8.57;5.28;;;;;;;9.44;71.76;101125.66;5066581;28;20033;-85
2023/12/06 09:30:09;;;;;;;8.55;5.65;;;;;;;9.68;71.66;101165.47;5068292;28;20029;-85
2023/12/06 09:32:35;;;;;;;;;;;;;;;9.69;71.73;101164.63;5052372;28;20033;-84
2023/12/06 09:35:00;;;;;;;9.10;5.40;;;;;;;9.55;72.07;101146.41;5048999;28;19916;-84
2023/12/06 09:37:26;;;;;;;8.15;5.65;;;;;;;9.48;72.18;101131.19;5064949;28;20368;-83
2023/12/06 09:39:53;;;;;;;10.48;5.32;;;;;;;9.57;71.86;101137.00;5064970;28;20024;-85
2023/12/06 09:42:18;;;;;;;;;;;;;;;9.68;72.03;101152.41;5050680;28;20028;-85
2023/12/06 09:44:45;;;;;;;10.18;5.95;;;;;;;9.51;71.73;101115.75;5075882;28;20395;-85
2023/12/06 09:47:12;;;;;;;9.40;5.75;;;;;;;9.73;71.61;101151.88;5063060;28;20438;-84
2023/12/06 09:49:54;;;;;;;8.80;5.60;;;;;;;9.66;71.85;101143.59;5051751;28;20027;-86
2023/12/06 09:52:26;;;;;;;7.60;5.40;;;;;;;9.04;71.62;101013.66;5046669;28;20024;-85
2023/12/06 09:54:52;;;;;;;8.38;5.28;;;;;;;9.60;71.97;101122.34;5054604;28;20024;-83
2023/12/06 09:57:17;;;;;;;7.05;5.47;;;;;;;9.09;71.99;101026.19;5066570;28;20037;-84
2023/12/06 09:59:43;;;;;;;9.38;6.00;;;;;;;9.56;71.87;101100.38;5051604;28;20033;-86
2023/12/06 10:02:15;;;;;;;8.00;5.65;;;;;;;9.60;71.76;101115.41;5051650;28;20024;-86
2023/12/06 10:04:41;;;;;;;7.18;4.88;;;;;;;9.22;71.90;101046.13;5052552;28;20039;-85
2023/12/06 10:07:07;;;;;;;;;;;;;;;9.67;71.79;101119.31;5046327;28;20132;-85
2023/12/06 10:09:33;;;;;;;10.20;5.70;;;;;;;9.50;71.96;101093.09;5072810;28;20007;-85
2023/12/06 10:12:11;;;;;;;9.95;5.50;;;;;;;9.43;71.78;101074.34;5063026;28;20039;-85
2023/12/06 10:14:37;;;;;;;8.95;5.68;;;;;;;9.46;71.89;101067.63;5050008;28;20024;-85
2023/12/06 10:17:03;;;;;;;9.52;5.53;;;;;;;9.70;71.87;101101.28;5047042;28;20039;-85
2023/12/06 10:19:32;;;;;;;8.45;6.00;;;;;;;9.58;72.09;101077.91;5059366;28;20036;-85
2023/12/06 10:21:59;;;;;;;8.55;5.35;;;;;;;9.65;71.72;101081.81;5064559;28;20028;-85
2023/12/06 10:24:25;;;;;;;6.97;5.07;;;;;;;9.58;72.08;101068.38;5048054;28;20031;-85
2023/12/06 10:27:11;;;;;;;7.90;5.50;;;;;;;9.43;71.78;101032.66;5067645;28;20024;-85
2023/12/06 10:29:37;;;;;;;8.10;5.32;;;;;;;9.43;71.92;101025.72;5064238;28;20407;-84
2023/12/06 10:32:03;;;;;;;8.43;5.15;;;;;;;9.44;71.63;101022.31;5068478;28;20078;-83
2023/12/06 10:34:28;;;;;;;;;;;;;;;9.66;72.16;101061.06;5061340;28;20047;-84
2023/12/06 10:36:55;;;;;;;6.93;4.90;;;;;;;9.65;71.97;101056.66;5078702;28;19999;-84
2023/12/06 10:39:22;;;;;;;7.97;5.30;;;;;;;9.37;72.01;101009.69;5048169;28;20090;-83
2023/12/06 10:41:49;;;;;;;8.95;5.53;;;;;;;9.38;71.55;101004.59;5030318;28;20040;-83
2023/12/06 10:44:15;;;;;;;8.68;5.63;;;;;;;9.57;72.10;101031.81;5045467;28;20032;-82
2023/12/06 10:46:41;;;;;;;8.05;5.38;;;;;;;9.68;72.01;101049.00;5049681;28;20133;-83
2023/12/06 10:49:11;;;;;;;7.95;5.25;;;;;;;9.63;71.98;101049.53;5045050;28;20040;-84
2023/12/06 10:51:39;;;;;;;8.82;5.80;;;;;;;9.67;71.95;101043.69;5042149;28;20039;-84
2023/12/06 10:54:05;;;;;;;9.40;6.13;;;;;;;9.39;72.08;100989.84;5066456;28;20509;-84
2023/12/06 10:56:31;;;;;;;8.35;6.03;;;;;;;9.49;71.81;101006.97;5049151;28;20113;-82
2023/12/06 10:58:58;;;;;;;9.98;5.55;;;;;;;9.65;72.14;101034.88;5046515;28;20026;-83
2023/12/06 11:01:26;;;;;;;10.18;6.15;;;;;;;9.57;71.70;101003.13;5049787;28;20103;-85
2023/12/06 11:03:52;;;;;;;16.65;7.43;;;;;;;9.71;73.30;101010.06;5065399;28;20040;-83
2023/12/06 11:06:58;;;;;;;15.35;7.25;;;;;;;9.74;73.40;101035.47;5047113;28;20077;-83
2023/12/06 11:09:51;;;;;;;16.63;7.70;;;;;;;9.71;72.65;101033.53;5060544;28;20039;-83
2023/12/06 11:12:42;;;;;;;23.13;10.73;;;;;;;9.73;72.62;101029.31;5059181;28;20036;-82
2023/12/06 11:15:38;;;;;;;21.95;10.68;;;;;;;9.74;72.60;101033.75;5057227;28;20090;-83
2023/12/06 11:18:19;;;;;;;19.85;9.90;;;;;;;9.77;72.73;101031.31;5064081;28;20046;-80
2023/12/06 11:20:45;;;;;;;19.67;8.75;;;;;;;9.77;72.87;101007.84;5062914;28;20036;-83
2023/12/06 11:23:11;;;;;;;16.88;9.27;;;;;;;9.94;73.04;101021.00;5068699;28;20040;-83
2023/12/06 11:25:44;;;;;;;22.50;10.10;;;;;;;9.87;72.86;100998.88;5069249;28;20075;-83
2023/12/06 11:28:13;;;;;;;16.75;9.10;;;;;;;9.91;73.13;101018.22;5067653;28;20048;-85
2023/12/06 11:30:55;;;;;;;15.73;9.02;;;;;;;9.83;73.54;101007.31;5048561;28;20186;-83
2023/12/06 11:33:21;;;;;;;15.07;8.20;;;;;;;9.77;73.61;100992.19;5057158;28;20029;-83